Airfield :
LOGIN :

Register | Disclaimer

   EN    FR    IT 

 










Legend :    VFR   Marginal VFR   IFR   Intensive IFR   Very Intensive IFR
Visi :
Ceiling :
>= 8 km
>= 3000ft
5 to 8 km
1000 to 3000 ft
1500m to 5 km
500 to 1000 ft
800 to 1500m
200 to 500 ft
< 800m
< 200 ft
Symbols :   Thunderstorms  Fog  Heavy snow  Heavy precipitations  Wind > 20 kt
SIGMETs :     Misc.  Thunderstorms  Icing  Turbulence  Mountain Waves  Volcanic Ashes






- Airport Elevation : 240 ft
- IATA code : VLC


LEVC - Valencia Manises

CURRENT METAR :
  • 200130Z 26004KT CAVOK 11/08 Q1016 NOSIG

EXPIRED METARs :
  • 200100Z 31004KT CAVOK 12/07 Q1017 NOSIG
  • 200030Z 31006KT CAVOK 13/08 Q1018 NOSIG
  • 200000Z 31006KT CAVOK 13/08 Q1018 NOSIG
  • 192330Z 32007KT CAVOK 13/08 Q1018 NOSIG
  • 192300Z 32008KT CAVOK 13/09 Q1019 NOSIG
  • 192230Z 34005KT CAVOK 14/09 Q1019 NOSIG
  • 192200Z 36006KT CAVOK 15/10 Q1019 NOSIG
  • 192130Z 02006KT CAVOK 15/10 Q1019 NOSIG
  • 192100Z 02005KT CAVOK 16/10 Q1019 NOSIG

TAF TAF LEVC
Valid from the 20 at 00:00 until the 21 at 00:00 UTC


192300Z 2000/2024 VRB04KT 9999 SCT020 TX22/2012Z TN08/2006Z
TEMPO 2012/2018 11010KT



MET'MAP, your aeronautical weather chart ! - Copyright ORBIFLY December 2007 - Disclaimer

ORBIFLY MET'MAP TEAM :

Programming & Development : Alexandra Zaïnal
Original concept : Baudouin d'Aumeries
Technical & hardware support : Manuel Goepfert
Assistance : Marc-Olivier Méhu




SOURCES & CREDITS :

   NOAA